Aviation Digital Data Service (ADDS)

Output produced by TAFs form (0636 UTC 24 September 2017)
found at http://aviationweather.gov/adds/tafs/
 
KDMN 240520Z 2406/2506 25013G22KT P6SM SCT080 SCT250 
     FM240800 26006KT P6SM SKC 
     FM241900 25011KT P6SM FEW100